Time;durP1;ratioP1;P1;durP2;ratioP2;P2;SDS_P1;SDS_P2;PMS_P1;PMS_P2;Temp;Humidity;BMP_temperature;BMP_pressure;BME280_temperature;BME280_humidity;BME280_pressure;Samples;Min_cycle;Max_cycle;Signal;HPM_P1;HPM_P2
2024/03/12 00:00:43;;;;;;;;;44.25;32.25;;;;;10.46;74.84;100841.81;5077387;28;59131;-56
2024/03/12 00:03:09;;;;;;;;;40.00;32.50;;;;;10.47;75.09;100840.91;5066552;27;45462;-56
2024/03/12 00:05:34;;;;;;;;;44.00;35.50;;;;;10.48;74.88;100847.00;5072475;27;45477;-55
2024/03/12 00:08:01;;;;;;;;;46.75;34.00;;;;;10.47;74.69;100851.38;5063667;27;46124;-55
2024/03/12 00:10:27;;;;;;;;;50.25;35.25;;;;;10.47;74.86;100854.00;5063695;28;45369;-56
2024/03/12 00:12:53;;;;;;;;;46.00;36.25;;;;;10.50;75.15;100855.66;5073647;27;45367;-56
2024/03/12 00:15:23;;;;;;;;;47.00;32.50;;;;;10.49;75.13;100857.44;5069917;28;45477;-55
2024/03/12 00:17:50;;;;;;;;;44.75;33.00;;;;;10.49;75.24;100857.44;5081866;27;45419;-55
2024/03/12 00:20:29;;;;;;;;;46.00;34.00;;;;;10.48;75.19;100867.94;5065545;28;45326;-56
2024/03/12 00:22:55;;;;;;;;;46.25;33.00;;;;;10.47;75.25;100876.69;5076946;27;45359;-57
2024/03/12 00:25:21;;;;;;;;;46.00;33.75;;;;;10.48;75.11;100878.41;5066214;28;45442;-57
2024/03/12 00:27:47;;;;;;;;;50.25;36.50;;;;;10.48;75.16;100875.78;5067979;27;74340;-56
2024/03/12 00:30:14;;;;;;;;;40.50;33.50;;;;;10.47;75.17;100876.69;5077401;28;45281;-56
2024/03/12 00:32:40;;;;;;;;;47.25;35.25;;;;;10.45;74.89;100869.72;5082643;27;45489;-56
2024/03/12 00:35:06;;;;;;;;;38.75;31.25;;;;;10.42;74.83;100880.25;5063184;28;45585;-55
2024/03/12 00:37:32;;;;;;;;;42.25;32.25;;;;;10.38;75.20;100888.25;5072601;27;45498;-53
2024/03/12 00:39:58;;;;;;;;;40.75;27.00;;;;;10.38;75.10;100896.09;5075737;28;45496;-54
2024/03/12 00:42:23;;;;;;;;;48.00;33.50;;;;;10.39;75.26;100898.66;5068215;27;68309;-55
2024/03/12 00:44:49;;;;;;;;;45.00;35.25;;;;;10.39;75.32;100897.78;5068667;27;53123;-50
2024/03/12 00:47:14;;;;;;;;;44.75;33.25;;;;;10.41;75.57;100912.56;5065244;27;48493;-54
2024/03/12 00:49:40;;;;;;;;;37.25;32.25;;;;;10.44;75.45;100914.25;5065584;28;67691;-55
2024/03/12 00:52:05;;;;;;;;;38.75;26.00;;;;;10.47;76.00;100921.19;5069250;27;45441;-54
2024/03/12 00:54:35;;;;;;;;;38.75;27.00;;;;;10.49;75.85;100928.06;5067591;27;55989;-55
2024/03/12 00:57:02;;;;;;;;;40.75;30.50;;;;;10.49;75.34;100925.47;5079950;27;45535;-55
2024/03/12 00:59:29;;;;;;;;;40.50;30.00;;;;;10.51;75.52;100925.44;5072323;27;45327;-54
2024/03/12 01:01:54;;;;;;;;;35.75;29.50;;;;;10.51;75.49;100928.03;5075893;27;45311;-52
2024/03/12 01:04:21;;;;;;;;;35.00;25.50;;;;;10.50;75.37;100924.59;5079801;27;45437;-55
2024/03/12 01:06:47;;;;;;;;;36.00;27.50;;;;;10.49;75.20;100930.69;5075116;27;47057;-55
2024/03/12 01:09:17;;;;;;;;;43.50;26.75;;;;;10.51;75.48;100928.91;5062933;27;45504;-56
2024/03/12 01:11:46;;;;;;;;;35.25;26.50;;;;;10.49;75.13;100941.16;5077745;27;45549;-55
2024/03/12 01:14:12;;;;;;;;;38.25;29.75;;;;;10.48;75.38;100921.13;5081491;27;45496;-56
2024/03/12 01:16:38;;;;;;;;;34.25;28.00;;;;;10.51;75.58;100931.50;5079341;27;46073;-56
2024/03/12 01:19:06;;;;;;;;;35.75;25.75;;;;;10.52;75.38;100921.94;5070569;27;45457;-56
2024/03/12 01:21:32;;;;;;;;;34.25;21.50;;;;;10.52;75.21;100919.31;5067472;27;45269;-55
2024/03/12 01:23:58;;;;;;;;;26.00;22.00;;;;;10.54;75.46;100920.97;5079073;27;45466;-57
2024/03/12 01:26:25;;;;;;;;;31.25;26.00;;;;;10.56;75.76;100924.41;5064525;28;47202;-57
2024/03/12 01:28:51;;;;;;;;;38.00;26.00;;;;;10.59;74.85;100923.50;5063170;27;45282;-56
2024/03/12 01:31:16;;;;;;;;;32.75;24.00;;;;;10.60;75.18;100931.28;5076833;28;45473;-55
2024/03/12 01:33:42;;;;;;;;;37.00;24.00;;;;;10.61;75.07;100929.56;5075075;27;45314;-56
2024/03/12 01:36:18;;;;;;;;;30.75;25.50;;;;;10.59;74.72;100929.59;5074740;27;72207;-56
2024/03/12 01:38:48;;;;;;;;;31.75;27.00;;;;;10.60;74.86;100931.28;5088311;27;46007;-56
2024/03/12 01:41:16;;;;;;;;;34.75;23.50;;;;;10.62;74.66;100926.03;5077825;28;45295;-57
2024/03/12 01:43:42;;;;;;;;;34.00;25.25;;;;;10.61;74.82;100929.56;5067170;27;45732;-56
2024/03/12 01:46:10;;;;;;;;;28.75;23.25;;;;;10.59;74.60;100920.88;5061565;28;64952;-55
2024/03/12 01:48:36;;;;;;;;;26.00;18.25;;;;;10.60;74.71;100930.44;5066829;27;45367;-57
2024/03/12 01:51:01;;;;;;;;;25.50;20.50;;;;;10.59;74.53;100929.59;5087491;27;45575;-55
2024/03/12 01:53:26;;;;;;;;;31.00;23.75;;;;;10.60;74.16;100935.69;5070661;27;73230;-54
2024/03/12 01:55:52;;;;;;;;;28.00;21.75;;;;;10.61;74.17;100932.16;5062230;28;48487;-57
2024/03/12 01:58:17;;;;;;;;;29.50;23.50;;;;;10.61;74.26;100927.78;5075981;27;45386;-53
2024/03/12 02:00:44;;;;;;;;;29.00;23.00;;;;;10.63;73.91;100928.59;5072436;28;45428;-55
2024/03/12 02:03:09;;;;;;;;;29.25;21.50;;;;;10.63;74.16;100922.53;5066581;27;45514;-56
2024/03/12 02:05:35;;;;;;;;;24.25;20.25;;;;;10.60;73.90;100927.81;5066805;27;75754;-55
2024/03/12 02:08:01;;;;;;;;;25.00;15.00;;;;;10.59;73.88;100934.81;5070750;27;59934;-56
2024/03/12 02:10:27;;;;;;;;;27.50;19.25;;;;;10.60;73.28;100925.22;5064776;27;45502;-54
2024/03/12 02:12:52;;;;;;;;;19.25;15.75;;;;;10.61;73.62;100922.56;5066224;27;45277;-53
2024/03/12 02:15:18;;;;;;;;;25.25;17.25;;;;;10.62;73.29;100924.28;5075102;28;45998;-57
2024/03/12 02:17:44;;;;;;;;;20.75;18.25;;;;;10.61;73.65;100926.94;5074073;27;45355;-52
2024/03/12 02:20:09;;;;;;;;;28.00;19.00;;;;;10.59;73.24;100926.13;5075680;27;45410;-54
2024/03/12 02:22:36;;;;;;;;;25.75;19.75;;;;;10.60;72.87;100928.66;5074487;27;45351;-57
2024/03/12 02:25:03;;;;;;;;;21.00;17.50;;;;;10.61;73.11;100935.66;5077713;27;47071;-57
2024/03/12 02:27:28;;;;;;;;;27.25;18.25;;;;;10.59;73.10;100932.22;5078438;27;46055;-56
2024/03/12 02:29:54;;;;;;;;;21.75;16.75;;;;;10.58;73.22;100927.84;5078546;27;45287;-54
2024/03/12 02:32:19;;;;;;;;;28.00;18.75;;;;;10.59;73.05;100933.97;5074804;27;45508;-54
2024/03/12 02:34:45;;;;;;;;;28.75;17.00;;;;;10.57;72.89;100936.63;5073853;28;46104;-56
2024/03/12 02:37:10;;;;;;;;;22.00;18.50;;;;;10.57;72.81;100934.00;5067586;28;72739;-51
2024/03/12 02:39:35;;;;;;;;;24.50;17.50;;;;;10.56;72.72;100937.50;5078249;28;71257;-50
2024/03/12 02:42:01;;;;;;;;;23.00;16.50;;;;;10.54;72.57;100933.22;5071126;27;70098;-55
2024/03/12 02:44:26;;;;;;;;;24.25;18.00;;;;;10.54;72.99;100943.69;5064376;27;75358;-56
2024/03/12 02:46:54;;;;;;;;;20.75;17.00;;;;;10.54;72.85;100944.53;5062139;28;45431;-55
2024/03/12 02:49:20;;;;;;;;;26.25;18.25;;;;;10.53;72.74;100932.34;5063886;28;47085;-56
2024/03/12 02:51:46;;;;;;;;;27.00;16.75;;;;;10.53;72.89;100932.34;5062043;27;45449;-56
2024/03/12 02:54:15;;;;;;;;;22.00;21.00;;;;;10.55;72.71;100940.16;5066019;27;46423;-56
2024/03/12 02:56:41;;;;;;;;;22.50;17.25;;;;;10.55;72.66;100938.41;5075796;27;45385;-56
2024/03/12 02:59:08;;;;;;;;;21.75;17.00;;;;;10.56;72.68;100931.41;5071823;27;63240;-56
2024/03/12 03:01:35;;;;;;;;;20.00;16.00;;;;;10.54;72.57;100938.44;5064114;27;45556;-54
2024/03/12 03:04:00;;;;;;;;;22.50;18.50;;;;;10.55;72.55;100941.03;5068486;27;46062;-55
2024/03/12 03:06:26;;;;;;;;;20.50;18.25;;;;;10.56;72.58;100944.50;5063462;27;45328;-55
2024/03/12 03:08:51;;;;;;;;;20.25;17.00;;;;;10.57;73.12;100947.09;5073162;27;65359;-56
2024/03/12 03:11:16;;;;;;;;;22.50;15.00;;;;;10.58;73.26;100945.31;5062894;28;59749;-53
2024/03/12 03:13:42;;;;;;;;;21.50;17.00;;;;;10.60;72.78;100952.22;5069207;28;73077;-54
2024/03/12 03:16:08;;;;;;;;;16.25;15.00;;;;;10.60;73.08;100949.59;5068206;27;45360;-55
2024/03/12 03:18:34;;;;;;;;;20.00;16.00;;;;;10.61;72.73;100947.88;5069139;28;45301;-55
2024/03/12 03:20:59;;;;;;;;;25.00;17.25;;;;;10.62;72.79;100949.56;5067034;27;45597;-54
2024/03/12 03:23:24;;;;;;;;;25.50;19.25;;;;;10.61;72.66;100951.34;5064267;27;46142;-56
2024/03/12 03:25:50;;;;;;;;;18.75;17.00;;;;;10.58;72.87;100948.78;5067191;28;45273;-56
2024/03/12 03:28:15;;;;;;;;;21.75;15.25;;;;;10.57;72.80;100951.44;5066668;28;68145;-56
2024/03/12 03:30:41;;;;;;;;;16.50;15.00;;;;;10.55;72.91;100948.88;5063595;27;62910;-56
2024/03/12 03:33:08;;;;;;;;;22.75;16.75;;;;;10.57;73.17;100951.44;5077288;27;46872;-54
2024/03/12 03:35:34;;;;;;;;;17.75;12.50;;;;;10.56;73.26;100954.97;5077079;27;47551;-57
2024/03/12 03:38:00;;;;;;;;;23.75;16.50;;;;;10.56;73.34;100958.44;5059187;28;63216;-54
2024/03/12 03:40:26;;;;;;;;;22.25;14.00;;;;;10.54;73.67;100955.00;5070009;28;45431;-55
2024/03/12 03:42:55;;;;;;;;;12.50;12.50;;;;;10.55;73.85;100954.13;5067227;27;45463;-53
2024/03/12 03:45:21;;;;;;;;;17.75;14.25;;;;;10.51;74.44;100955.06;5062108;28;45390;-56
2024/03/12 03:47:46;;;;;;;;;18.75;13.00;;;;;10.51;74.39;100951.59;5061792;28;45376;-55
2024/03/12 03:50:12;;;;;;;;;17.25;15.00;;;;;10.47;74.88;100961.28;5064929;28;45432;-55
2024/03/12 03:52:38;;;;;;;;;20.75;16.25;;;;;10.44;75.14;100953.50;5076827;27;46094;-53
2024/03/12 03:55:05;;;;;;;;;16.25;14.25;;;;;10.42;75.29;100955.28;5067373;27;45197;-51
2024/03/12 03:57:31;;;;;;;;;18.75;13.25;;;;;10.41;75.49;100956.16;5066503;28;45292;-54
2024/03/12 03:59:57;;;;;;;;;22.00;13.25;;;;;10.40;75.81;100959.69;5060575;27;45313;-53
2024/03/12 04:02:22;;;;;;;;;15.25;13.00;;;;;10.39;76.05;100963.19;5068523;28;57240;-49
2024/03/12 04:04:49;;;;;;;;;18.00;13.00;;;;;10.37;75.98;100965.00;5076558;27;70844;-50
2024/03/12 04:07:15;;;;;;;;;19.75;12.00;;;;;10.38;76.59;100964.09;5073557;27;45504;-52
2024/03/12 04:09:41;;;;;;;;;18.50;13.50;;;;;10.36;76.57;100969.38;5077482;28;45363;-53
2024/03/12 04:12:06;;;;;;;;;21.00;13.50;;;;;10.36;76.50;100977.22;5084616;28;46923;-51
2024/03/12 04:14:32;;;;;;;;;17.25;13.25;;;;;10.34;77.08;100984.25;5083484;27;45192;-54
2024/03/12 04:16:57;;;;;;;;;18.25;13.25;;;;;10.34;77.31;100983.34;5065277;28;45563;-58
2024/03/12 04:19:23;;;;;;;;;17.75;12.00;;;;;10.32;77.24;100985.16;5070464;28;45296;-56
2024/03/12 04:21:48;;;;;;;;;20.00;16.00;;;;;10.31;77.63;100986.03;5076343;27;60196;-57
2024/03/12 04:24:13;;;;;;;;;20.25;18.50;;;;;10.31;77.73;100994.78;5080268;27;72932;-57
2024/03/12 04:26:39;;;;;;;;;20.00;14.00;;;;;10.29;77.83;100993.03;5083256;27;45251;-55
2024/03/12 04:29:05;;;;;;;;;18.00;14.25;;;;;10.26;78.04;101001.81;5079873;27;45367;-56
2024/03/12 04:31:31;;;;;;;;;17.25;13.25;;;;;10.23;78.66;101000.16;5085339;27;45332;-56
2024/03/12 04:33:57;;;;;;;;;16.25;11.75;;;;;10.22;78.84;101002.78;5079257;27;45999;-55
2024/03/12 04:36:22;;;;;;;;;17.00;13.00;;;;;10.21;78.72;100999.28;5071318;28;45413;-55
2024/03/12 04:38:51;;;;;;;;;21.50;16.25;;;;;10.20;79.38;100994.97;5078849;27;45582;-56
2024/03/12 04:41:22;;;;;;;;;18.75;14.50;;;;;10.20;79.67;100989.75;5070552;28;46156;-56
2024/03/12 04:43:48;;;;;;;;;16.50;14.00;;;;;10.21;79.45;100999.28;5074036;27;45814;-55
2024/03/12 04:46:13;;;;;;;;;16.75;14.25;;;;;10.21;79.55;100991.44;5069732;27;45442;-56
2024/03/12 04:48:39;;;;;;;;;18.00;15.00;;;;;10.23;79.44;100996.66;5072762;28;45430;-55
2024/03/12 04:51:04;;;;;;;;;13.00;11.25;;;;;10.22;79.56;101006.25;5071110;28;46236;-56
2024/03/12 04:53:30;;;;;;;;;17.00;10.75;;;;;10.23;79.72;101010.59;5082635;27;45492;-53
2024/03/12 04:55:57;;;;;;;;;16.00;11.50;;;;;10.24;79.38;100998.38;5082113;27;45272;-53
2024/03/12 04:58:23;;;;;;;;;16.75;13.25;;;;;10.23;79.85;101008.00;5081553;27;45219;-54
2024/03/12 05:00:49;;;;;;;;;18.75;13.00;;;;;10.23;79.74;101005.38;5073302;27;46268;-55
2024/03/12 05:03:14;;;;;;;;;15.25;11.50;;;;;10.21;79.92;101009.75;5075520;27;45594;-54
2024/03/12 05:05:40;;;;;;;;;14.25;13.00;;;;;10.22;79.89;101003.63;5071107;27;60549;-54
2024/03/12 05:08:06;;;;;;;;;16.75;13.75;;;;;10.24;80.00;101004.47;5068596;27;45508;-56
2024/03/12 05:10:31;;;;;;;;;20.25;15.00;;;;;10.26;79.96;101005.28;5079168;27;45390;-55
2024/03/12 05:12:56;;;;;;;;;13.50;12.00;;;;;10.29;79.92;101009.59;5062760;27;73480;-55
2024/03/12 05:15:22;;;;;;;;;17.00;13.25;;;;;10.30;80.14;101007.84;5072081;27;58250;-56
2024/03/12 05:17:48;;;;;;;;;18.75;14.00;;;;;10.30;80.29;101013.06;5063150;27;73236;-54
2024/03/12 05:20:17;;;;;;;;;16.75;12.00;;;;;10.30;80.22;101013.06;5061491;28;45430;-55
2024/03/12 05:22:47;;;;;;;;;19.00;12.50;;;;;10.32;79.87;101025.25;5075878;27;45672;-55
2024/03/12 05:25:38;;;;;;;;;17.25;13.75;;;;;10.32;80.15;101024.41;5096146;27;45379;-56
2024/03/12 05:28:07;;;;;;;;;13.00;11.00;;;;;10.33;79.85;101019.13;5070148;27;45493;-53
2024/03/12 05:30:35;;;;;;;;;16.00;14.50;;;;;10.36;79.91;101024.31;5062773;27;46982;-55
2024/03/12 05:33:04;;;;;;;;;14.75;14.25;;;;;10.34;79.76;101025.22;5075167;27;45996;-54
2024/03/12 05:35:31;;;;;;;;;19.50;14.25;;;;;10.35;79.92;101024.34;5075011;27;45489;-55
2024/03/12 05:38:22;;;;;;;;;18.00;15.25;;;;;10.36;80.32;101026.06;5080114;27;45739;-55
2024/03/12 05:48:59;;;;;;;;;18.00;16.00;;;;;10.36;79.95;101029.53;5071459;27;45390;-55
2024/03/12 05:51:24;;;;;;;;;13.75;12.00;;;;;10.33;80.20;101028.75;5062153;28;75489;-56
2024/03/12 05:53:50;;;;;;;;;28.50;20.50;;;;;10.32;nan;101027.84;5069503;27;56134;-55
2024/03/12 05:56:16;;;;;;;;;23.00;15.75;;;;;10.28;79.95;101026.19;5076388;27;69551;-55
2024/03/12 05:58:41;;;;;;;;;23.75;16.50;;;;;10.24;79.73;101027.16;5071976;27;45455;-57
2024/03/12 06:01:07;;;;;;;;;19.00;15.50;;;;;10.21;79.87;101037.66;5073978;27;57328;-56
2024/03/12 06:03:35;;;;;;;;;23.50;15.75;;;;;10.17;79.85;101036.88;5071560;27;63317;-56
2024/03/12 06:06:03;;;;;;;;;19.00;16.75;;;;;10.12;79.75;101037.88;5079330;27;45267;-56
2024/03/12 06:08:29;;;;;;;;;23.50;17.75;;;;;10.06;79.80;101038.84;5062089;28;45584;-54
2024/03/12 06:10:55;;;;;;;;;20.75;13.75;;;;;10.02;80.18;101050.25;5077345;28;46060;-55
2024/03/12 06:13:22;;;;;;;;;24.50;15.75;;;;;9.98;79.92;101048.59;5078986;27;45518;-56
2024/03/12 06:15:49;;;;;;;;;24.75;13.00;;;;;9.94;80.34;101047.78;5068860;27;45457;-57
2024/03/12 06:18:15;;;;;;;;;16.50;15.75;;;;;9.90;80.40;101051.38;5067564;27;45385;-56
2024/03/12 06:20:45;;;;;;;;;26.75;17.25;;;;;9.88;80.52;101050.53;5071568;27;45366;-56
2024/03/12 06:23:12;;;;;;;;;21.50;16.25;;;;;9.87;80.59;101052.25;5076254;27;45893;-55
2024/03/12 06:25:38;;;;;;;;;24.75;19.25;;;;;9.88;80.59;101061.00;5081007;27;45503;-55
2024/03/12 06:28:05;;;;;;;;;22.00;18.50;;;;;9.88;80.54;101063.59;5075266;28;71296;-55
2024/03/12 06:30:32;;;;;;;;;17.50;16.50;;;;;9.88;80.25;101064.47;5073908;27;45450;-53
2024/03/12 06:32:58;;;;;;;;;24.50;17.00;;;;;9.87;80.34;101069.72;5066495;27;45315;-55
2024/03/12 06:35:23;;;;;;;;;0.00;0.00;;;;;9.87;80.38;101067.94;5070106;28;45573;-55
2024/03/12 06:37:49;;;;;;;;;24.00;14.75;;;;;9.89;80.54;101070.53;5062464;28;73081;-55
2024/03/12 06:40:16;;;;;;;;;23.25;16.25;;;;;9.92;80.19;101070.50;5060444;27;73450;-57
2024/03/12 06:42:42;;;;;;;;;22.50;16.25;;;;;9.92;80.11;101065.25;5066764;27;45987;-58
2024/03/12 06:45:11;;;;;;;;;26.25;17.25;;;;;9.94;80.20;101068.69;5070437;27;45264;-59
2024/03/12 06:47:41;;;;;;;;;20.50;17.00;;;;;9.93;80.08;101066.97;5060593;28;45561;-59
2024/03/12 06:50:10;;;;;;;;;22.75;18.50;;;;;9.97;80.48;101070.38;5066330;28;45453;-58
2024/03/12 06:52:36;;;;;;;;;27.00;21.50;;;;;10.00;80.21;101071.19;5064709;28;46041;-59
2024/03/12 06:55:04;;;;;;;;;16.00;14.00;;;;;10.03;80.20;101073.75;5072432;28;45463;-57
2024/03/12 06:57:30;;;;;;;;;18.75;14.75;;;;;10.03;79.91;101086.81;5062356;28;45517;-59
2024/03/12 06:59:56;;;;;;;;;23.00;18.00;;;;;10.07;79.78;101075.44;5063954;28;46220;-58
2024/03/12 07:02:22;;;;;;;;;23.25;17.50;;;;;10.12;79.73;101088.41;5067538;28;45806;-58
2024/03/12 07:04:48;;;;;;;;;19.25;16.00;;;;;10.17;79.72;101091.78;5071749;28;45464;-59
2024/03/12 07:07:19;;;;;;;;;25.25;14.75;;;;;10.20;79.44;101089.13;5071710;27;45365;-59
2024/03/12 07:09:49;;;;;;;;;21.75;16.00;;;;;10.24;79.29;101096.00;5070396;28;46965;-59
2024/03/12 07:12:16;;;;;;;;;19.25;18.25;;;;;10.30;79.40;101102.88;5061033;28;45893;-61
2024/03/12 07:14:43;;;;;;;;;19.50;16.25;;;;;10.32;79.42;101100.25;5072392;27;45580;-58
2024/03/12 07:17:12;;;;;;;;;22.25;15.00;;;;;10.31;78.88;101091.56;5065479;28;45409;-59
2024/03/12 07:19:38;;;;;;;;;17.00;15.25;;;;;10.33;78.81;101097.63;5064568;28;49858;-59
2024/03/12 07:22:07;;;;;;;;;20.25;14.00;;;;;10.30;78.51;101102.88;5070574;27;45653;-59
2024/03/12 07:24:35;;;;;;;;;19.50;14.25;;;;;10.26;78.50;101104.69;5077826;27;45378;-60
2024/03/12 07:27:04;;;;;;;;;18.75;14.25;;;;;10.25;78.54;101099.47;5068740;27;45437;-58
2024/03/12 07:29:35;;;;;;;;;17.00;13.75;;;;;10.26;78.58;101109.06;5063205;28;46062;-63
2024/03/12 07:32:02;;;;;;;;;20.25;13.75;;;;;10.25;78.72;101100.34;5063962;27;45876;-60
2024/03/12 07:34:29;;;;;;;;;20.75;17.75;;;;;10.26;78.77;101109.06;5075385;27;45470;-61
2024/03/12 07:36:55;;;;;;;;;19.50;17.00;;;;;10.27;78.65;101108.19;5067038;28;45626;-59
2024/03/12 07:39:31;;;;;;;;;20.50;15.75;;;;;10.31;78.74;101116.84;5071560;28;46391;-59
2024/03/12 07:41:58;;;;;;;;;21.50;15.00;;;;;10.34;78.67;101111.53;5069756;28;45454;-62
2024/03/12 07:44:23;;;;;;;;;17.75;16.25;;;;;10.41;78.21;101111.41;5064963;27;45618;-60
2024/03/12 07:46:49;;;;;;;;;18.00;12.75;;;;;10.48;78.07;101112.13;5075100;28;45446;-61
2024/03/12 07:49:20;;;;;;;;;18.75;14.75;;;;;10.56;78.05;101125.06;5070576;28;45632;-61
2024/03/12 07:51:52;;;;;;;;;15.00;13.00;;;;;10.65;78.09;101117.03;5071422;28;45436;-65
2024/03/12 07:54:21;;;;;;;;;13.50;8.25;;;;;10.76;77.92;101122.88;5074725;27;45519;-62
2024/03/12 07:56:48;;;;;;;;;22.75;15.75;;;;;10.96;77.41;101126.81;5063744;28;45669;-62
2024/03/12 07:59:16;;;;;;;;;14.75;12.50;;;;;11.14;77.13;101130.81;5071651;28;47293;-62
2024/03/12 08:01:41;;;;;;;;;22.25;14.00;;;;;11.34;77.09;101127.69;5072703;28;45383;-62
2024/03/12 08:04:06;;;;;;;;;21.75;15.25;;;;;11.47;75.97;101125.66;5069027;27;45350;-62
2024/03/12 08:06:32;;;;;;;;;20.75;16.25;;;;;11.57;75.76;101129.75;5066305;27;73165;-63
2024/03/12 08:08:57;;;;;;;;;24.50;15.50;;;;;11.62;74.97;101127.91;5061144;28;46226;-60
2024/03/12 08:11:23;;;;;;;;;18.25;14.50;;;;;11.68;75.10;101130.34;5061004;28;70436;-61
2024/03/12 08:13:48;;;;;;;;;23.25;16.00;;;;;11.77;75.01;101135.38;5066075;27;68206;-62
2024/03/12 08:16:15;;;;;;;;;19.25;15.25;;;;;11.86;74.82;101139.50;5075593;27;45307;-62
2024/03/12 08:18:41;;;;;;;;;22.25;17.00;;;;;11.98;74.28;101140.13;5077186;28;46274;-62
2024/03/12 08:21:08;;;;;;;;;19.75;14.25;;;;;12.04;74.41;101137.34;5066639;27;45511;-62
2024/03/12 08:23:34;;;;;;;;;16.75;14.75;;;;;12.11;73.66;101138.88;5069308;27;45517;-62
2024/03/12 08:25:59;;;;;;;;;19.50;14.25;;;;;12.14;73.43;101137.03;5059761;27;45597;-61
2024/03/12 08:28:24;;;;;;;;;20.50;15.00;;;;;12.20;72.99;101136.03;5062721;27;66457;-59
2024/03/12 08:30:50;;;;;;;;;18.25;13.50;;;;;12.19;72.80;101139.56;5063513;27;46557;-59
2024/03/12 08:33:17;;;;;;;;;14.50;13.00;;;;;12.21;72.44;101148.25;5063610;27;69370;-58
2024/03/12 08:35:42;;;;;;;;;15.75;11.25;;;;;12.23;72.13;101149.06;5069366;28;45424;-60
2024/03/12 08:38:09;;;;;;;;;18.00;13.25;;;;;12.29;71.96;101143.66;5065549;27;46580;-59
2024/03/12 08:40:34;;;;;;;;;15.75;13.00;;;;;12.36;72.12;101152.22;5071661;27;45745;-62
2024/03/12 08:43:00;;;;;;;;;17.00;14.00;;;;;12.42;71.55;101152.03;5073066;27;45528;-62
2024/03/12 08:45:26;;;;;;;;;17.25;12.00;;;;;12.47;71.40;101150.16;5070117;27;45470;-62
2024/03/12 08:47:52;;;;;;;;;18.50;15.50;;;;;12.49;71.12;101155.34;5065850;27;45457;-62
2024/03/12 08:50:17;;;;;;;;;15.00;11.00;;;;;12.52;70.83;101161.38;5072298;27;46291;-61
2024/03/12 08:52:42;;;;;;;;;18.25;13.75;;;;;12.54;70.47;101159.56;5078258;27;68042;-62
2024/03/12 08:55:08;;;;;;;;;17.00;11.50;;;;;12.57;70.46;101163.88;5080081;27;45446;-61
2024/03/12 08:57:34;;;;;;;;;16.75;13.50;;;;;12.57;70.30;101163.88;5073464;27;47135;-62
2024/03/12 09:00:01;;;;;;;;;13.75;11.25;;;;;12.57;70.55;101163.00;5079874;27;45541;-61
2024/03/12 09:02:27;;;;;;;;;17.00;12.75;;;;;12.58;70.37;101165.59;5073370;27;45483;-61
2024/03/12 09:04:53;;;;;;;;;37.50;31.50;;;;;12.55;70.75;101168.28;5068559;27;45423;-63
2024/03/12 09:07:19;;;;;;;;;48.00;36.50;;;;;12.51;70.39;101167.53;5066563;27;46555;-63
2024/03/12 09:09:45;;;;;;;;;16.00;11.00;;;;;12.52;70.56;101177.13;5077987;27;45348;-67
2024/03/12 09:12:10;;;;;;;;;19.25;13.00;;;;;12.49;70.55;101176.34;5072864;27;45625;-68
2024/03/12 09:14:35;;;;;;;;;16.50;12.25;;;;;12.50;70.56;101181.56;5073811;27;45368;-64
2024/03/12 09:17:04;;;;;;;;;12.75;11.75;;;;;12.51;70.85;101183.28;5069417;27;57119;-65
2024/03/12 09:19:30;;;;;;;;;15.50;10.75;;;;;12.52;70.25;101184.16;5078058;27;45880;-65
2024/03/12 09:21:58;;;;;;;;;14.50;12.25;;;;;12.57;70.73;101186.63;5068182;27;45365;-62
2024/03/12 09:24:24;;;;;;;;;15.00;13.25;;;;;12.65;69.95;101187.28;5067687;28;45210;-64
2024/03/12 09:26:50;;;;;;;;;15.50;13.25;;;;;12.74;69.83;101192.28;5079028;27;47598;-67
2024/03/12 09:29:15;;;;;;;;;14.75;11.00;;;;;12.80;69.30;101188.59;5077120;27;45822;-66
2024/03/12 09:31:42;;;;;;;;;13.75;10.00;;;;;12.82;69.01;101198.19;5070815;27;65678;-61
2024/03/12 09:34:10;;;;;;;;;11.00;8.25;;;;;12.83;68.44;101201.66;5081105;27;45519;-60
2024/03/12 09:36:35;;;;;;;;;12.00;9.50;;;;;12.81;69.14;101196.44;5076165;28;46921;-63
2024/03/12 09:39:00;;;;;;;;;9.00;7.75;;;;;12.81;68.68;101201.69;5091889;27;69273;-64
2024/03/12 09:41:26;;;;;;;;;9.50;7.00;;;;;12.84;68.26;101206.03;5075357;27;45351;-61
2024/03/12 09:43:53;;;;;;;;;16.75;10.00;;;;;12.84;68.40;101208.66;5070381;27;45686;-62
2024/03/12 09:46:19;;;;;;;;;7.00;6.50;;;;;12.84;68.26;101206.88;5075145;27;45642;-63
2024/03/12 09:48:46;;;;;;;;;11.50;10.00;;;;;12.87;68.45;101213.78;5073926;27;45894;-63
2024/03/12 09:51:12;;;;;;;;;9.50;7.50;;;;;12.88;68.82;101213.75;5079455;27;45402;-62
2024/03/12 09:53:37;;;;;;;;;9.75;7.00;;;;;12.88;68.67;101210.28;5075998;27;45643;-60
2024/03/12 09:56:06;;;;;;;;;8.75;8.00;;;;;12.87;68.72;101216.41;5076379;27;48044;-61
2024/03/12 09:58:33;;;;;;;;;10.00;8.50;;;;;12.86;68.94;101210.31;5077378;27;45541;-63
2024/03/12 10:01:01;;;;;;;;;13.75;10.50;;;;;12.88;68.77;101211.13;5074228;27;45383;-61
2024/03/12 10:03:26;;;;;;;;;10.25;7.75;;;;;12.87;69.18;101208.53;5070427;27;45454;-55
2024/03/12 10:05:53;;;;;;;;;8.00;8.00;;;;;12.87;69.35;101203.28;5062525;27;46155;-58
2024/03/12 10:08:28;;;;;;;;;8.25;7.75;;;;;12.84;69.09;101201.63;5073173;27;45390;-58
2024/03/12 10:10:54;;;;;;;;;7.50;7.00;;;;;12.80;68.71;101197.38;5064204;28;45374;-58
2024/03/12 10:13:19;;;;;;;;;7.75;6.00;;;;;12.77;68.49;101199.22;5061670;28;45489;-58
2024/03/12 10:15:56;;;;;;;;;7.00;5.75;;;;;12.72;68.26;101191.47;5065227;28;45665;-58
2024/03/12 10:18:22;;;;;;;;;8.25;6.50;;;;;12.71;67.64;101187.09;5070492;27;45249;-56
2024/03/12 10:20:50;;;;;;;;;9.25;7.00;;;;;12.69;68.26;101191.53;5077002;27;45346;-58
2024/03/12 10:23:18;;;;;;;;;9.50;7.75;;;;;12.70;68.28;101191.50;5076653;28;45368;-56
2024/03/12 10:25:48;;;;;;;;;8.00;7.00;;;;;12.69;68.75;101184.50;5072019;28;47466;-58
2024/03/12 10:28:14;;;;;;;;;9.00;6.25;;;;;12.69;70.03;101186.28;5066435;27;45207;-59
2024/03/12 10:30:45;;;;;;;;;6.00;6.00;;;;;12.69;68.21;101186.28;5086016;27;45706;-58
2024/03/12 10:33:20;;;;;;;;;7.50;5.75;;;;;12.67;68.18;101185.47;5076632;28;45487;-58
2024/03/12 10:35:47;;;;;;;;;10.75;6.75;;;;;12.66;68.40;101182.00;5068859;27;45417;-58
2024/03/12 10:38:32;;;;;;;;;6.00;6.00;;;;;12.67;68.33;101182.84;5074811;27;45301;-58
2024/03/12 10:41:13;;;;;;;;;7.00;6.75;;;;;12.66;68.52;101184.63;5072789;27;62815;-58
2024/03/12 10:43:39;;;;;;;;;10.75;7.75;;;;;12.66;68.97;101175.88;5072623;28;45332;-58
2024/03/12 10:46:05;;;;;;;;;9.75;7.25;;;;;12.64;68.84;101178.56;5073513;27;46909;-57
2024/03/12 10:48:31;;;;;;;;;10.00;8.25;;;;;12.65;69.08;101172.38;5070320;27;45941;-58
2024/03/12 10:50:58;;;;;;;;;10.00;8.25;;;;;12.62;69.31;101175.09;5072698;27;45261;-58
2024/03/12 10:53:24;;;;;;;;;12.25;9.00;;;;;12.58;69.59;101165.59;5076673;27;45978;-61
2024/03/12 10:55:50;;;;;;;;;9.00;7.00;;;;;12.56;69.86;101164.78;5084306;27;45757;-61
2024/03/12 10:58:17;;;;;;;;;11.00;9.00;;;;;12.57;69.57;101161.25;5070282;27;45316;-55
2024/03/12 11:00:42;;;;;;;;;10.75;8.50;;;;;12.56;69.97;101164.78;5062562;28;45397;-59
2024/03/12 11:03:13;;;;;;;;;12.25;9.00;;;;;12.55;70.48;101157.78;5064758;28;45359;-61
2024/03/12 11:05:39;;;;;;;;;9.00;8.75;;;;;12.59;70.77;101162.06;5076021;27;46211;-60
2024/03/12 11:08:07;;;;;;;;;12.00;9.25;;;;;12.63;71.05;101152.34;5075596;27;66374;-60
2024/03/12 11:10:32;;;;;;;;;13.50;10.00;;;;;12.63;71.19;101147.09;5068128;27;45369;-59
2024/03/12 11:13:02;;;;;;;;;11.50;9.00;;;;;12.63;70.65;101147.94;5060552;28;73137;-59
2024/03/12 11:15:28;;;;;;;;;10.50;9.00;;;;;12.61;71.21;101149.75;5063140;27;45488;-61
2024/03/12 11:17:53;;;;;;;;;15.25;9.00;;;;;12.61;71.75;101141.03;5078641;27;45265;-59